Time;durP1;ratioP1;P1;durP2;ratioP2;P2;SDS_P1;SDS_P2;PMS_P1;PMS_P2;Temp;Humidity;BMP_temperature;BMP_pressure;BME280_temperature;BME280_humidity;BME280_pressure;Samples;Min_cycle;Max_cycle;Signal;HPM_P1;HPM_P2
2023/06/01 00:01:47;;;;;;;40.90;28.70;;;13.90;87.90;;;;;;5035008;28;20486;-80
2023/06/01 00:04:13;;;;;;;43.33;29.10;;;13.90;87.90;;;;;;5036932;28;20041;-79
2023/06/01 00:06:39;;;;;;;42.15;29.63;;;13.90;88.00;;;;;;5038485;28;20123;-79
2023/06/01 00:09:05;;;;;;;45.75;29.33;;;13.80;87.90;;;;;;5034002;28;20061;-79
2023/06/01 00:11:30;;;;;;;40.03;29.00;;;13.80;88.10;;;;;;5030361;28;20726;-79
2023/06/01 00:13:56;;;;;;;40.25;29.13;;;13.70;88.20;;;;;;5025979;28;20036;-80
2023/06/01 00:16:22;;;;;;;42.85;29.67;;;13.70;88.40;;;;;;5031592;28;20047;-79
2023/06/01 00:18:48;;;;;;;44.30;31.25;;;13.70;88.40;;;;;;5033558;28;20032;-79
2023/06/01 00:21:14;;;;;;;46.88;29.85;;;13.70;88.40;;;;;;5036710;28;20029;-79
2023/06/01 00:23:40;;;;;;;40.85;29.08;;;13.70;88.50;;;;;;5040453;28;20025;-79
2023/06/01 00:26:07;;;;;;;45.17;31.27;;;13.60;88.60;;;;;;5037823;28;20025;-80
2023/06/01 00:28:34;;;;;;;44.85;30.00;;;13.60;88.60;;;;;;5035082;28;20025;-82
2023/06/01 00:31:00;;;;;;;44.13;29.88;;;13.60;88.60;;;;;;5036619;28;20064;-81
2023/06/01 00:33:26;;;;;;;49.35;31.60;;;13.60;88.40;;;;;;5041751;28;20108;-80
2023/06/01 00:35:51;;;;;;;44.47;30.88;;;13.60;88.50;;;;;;5039599;28;20036;-80
2023/06/01 00:38:17;;;;;;;44.97;30.80;;;13.60;88.60;;;;;;5024441;28;20028;-82
2023/06/01 00:40:43;;;;;;;46.92;31.45;;;13.60;88.60;;;;;;5039138;28;20036;-80
2023/06/01 00:43:09;;;;;;;48.97;30.63;;;13.60;88.50;;;;;;5030501;28;20504;-80
2023/06/01 00:45:35;;;;;;;43.83;30.45;;;13.50;88.60;;;;;;5038254;28;20104;-80
2023/06/01 00:48:01;;;;;;;44.75;30.60;;;13.50;88.70;;;;;;5040810;28;20124;-79
2023/06/01 00:50:27;;;;;;;44.10;30.48;;;13.50;88.90;;;;;;5039413;28;20026;-79
2023/06/01 00:52:53;;;;;;;46.60;31.90;;;13.40;88.70;;;;;;5042064;28;20508;-80
2023/06/01 00:55:20;;;;;;;47.22;31.33;;;13.40;88.80;;;;;;5044298;28;20025;-81
2023/06/01 00:57:48;;;;;;;44.03;31.73;;;13.40;88.90;;;;;;5038974;28;20555;-80
2023/06/01 01:00:14;;;;;;;51.63;31.65;;;13.30;88.90;;;;;;5044654;28;20104;-80
2023/06/01 01:02:41;;;;;;;49.60;32.17;;;13.40;88.90;;;;;;5042207;28;20056;-83
2023/06/01 01:05:10;;;;;;;44.38;29.75;;;13.30;88.90;;;;;;5047442;28;20112;-81
2023/06/01 01:07:51;;;;;;;45.58;31.50;;;13.30;88.80;;;;;;5044861;28;20112;-80
2023/06/01 01:10:36;;;;;;;46.08;30.88;;;13.30;88.80;;;;;;5036237;28;20496;-78
2023/06/01 01:13:08;;;;;;;;;;;13.30;88.70;;;;;;5040604;28;20057;-81
2023/06/01 01:15:37;;;;;;;47.03;30.92;;;13.30;88.80;;;;;;5045843;28;20314;-80
2023/06/01 01:18:07;;;;;;;48.65;32.28;;;13.20;88.80;;;;;;5043294;28;20656;-81
2023/06/01 01:20:43;;;;;;;45.00;31.85;;;13.20;88.90;;;;;;5035729;28;20041;-81
2023/06/01 01:23:38;;;;;;;46.65;31.20;;;13.20;88.80;;;;;;5036170;28;20041;-82
2023/06/01 01:26:22;;;;;;;45.13;30.57;;;13.20;88.80;;;;;;5034366;28;20033;-81
2023/06/01 01:28:50;;;;;;;45.13;30.27;;;13.10;88.80;;;;;;5035504;28;20827;-81
2023/06/01 01:31:20;;;;;;;46.10;31.10;;;13.10;88.80;;;;;;5043400;28;20032;-82
2023/06/01 01:33:47;;;;;;;42.35;30.05;;;13.10;88.90;;;;;;5041939;28;20052;-81
2023/06/01 01:36:13;;;;;;;48.80;32.17;;;13.00;89.00;;;;;;5044283;28;20107;-81
2023/06/01 01:38:39;;;;;;;43.78;28.60;;;13.10;89.00;;;;;;5042438;28;20039;-81
2023/06/01 01:41:05;;;;;;;47.30;31.00;;;13.10;89.00;;;;;;5038618;28;20513;-81
2023/06/01 01:43:31;;;;;;;49.38;31.45;;;13.00;88.90;;;;;;5031851;28;20116;-78
2023/06/01 01:46:08;;;;;;;42.45;30.35;;;13.00;88.90;;;;;;5041176;28;20519;-79
2023/06/01 01:48:50;;;;;;;42.90;30.15;;;13.00;89.00;;;;;;5043793;28;20033;-79
2023/06/01 01:51:22;;;;;;;48.45;30.67;;;12.90;88.90;;;;;;5040545;28;20044;-79
2023/06/01 01:53:50;;;;;;;46.20;31.30;;;12.90;88.90;;;;;;5046379;28;20033;-79
2023/06/01 01:56:17;;;;;;;46.63;31.10;;;12.90;88.80;;;;;;5039084;28;20060;-78
2023/06/01 01:58:45;;;;;;;46.42;29.98;;;12.80;89.00;;;;;;5039933;28;20030;-79
2023/06/01 02:01:12;;;;;;;44.67;30.45;;;12.80;89.00;;;;;;5041560;28;20337;-79
2023/06/01 02:03:37;;;;;;;41.47;29.77;;;12.80;88.90;;;;;;5040759;28;20030;-79
2023/06/01 02:06:03;;;;;;;39.47;29.42;;;12.80;88.90;;;;;;5033812;28;20539;-79
2023/06/01 02:08:29;;;;;;;48.78;30.08;;;12.80;89.00;;;;;;5038221;28;20104;-79
2023/06/01 02:10:54;;;;;;;48.30;30.63;;;12.70;89.00;;;;;;5034703;28;20032;-79
2023/06/01 02:13:20;;;;;;;46.50;30.27;;;12.70;89.00;;;;;;5041570;28;20061;-79
2023/06/01 02:15:46;;;;;;;42.55;28.92;;;12.60;89.00;;;;;;5044064;28;20086;-79
2023/06/01 02:18:11;;;;;;;48.00;29.55;;;12.70;89.00;;;;;;5046357;28;20037;-80
2023/06/01 02:20:37;;;;;;;43.10;27.42;;;12.70;88.90;;;;;;5037365;28;20083;-80
2023/06/01 02:23:03;;;;;;;41.90;27.33;;;12.60;88.90;;;;;;5038697;28;20090;-79
2023/06/01 02:25:28;;;;;;;45.67;28.88;;;12.60;89.00;;;;;;5033128;28;20025;-82
2023/06/01 02:27:54;;;;;;;43.10;28.88;;;12.60;89.10;;;;;;5036032;28;20108;-78
2023/06/01 02:30:20;;;;;;;44.03;28.38;;;12.60;89.00;;;;;;5044334;28;20037;-79
2023/06/01 02:32:48;;;;;;;44.90;28.25;;;12.60;89.00;;;;;;5038274;28;20563;-79
2023/06/01 02:35:14;;;;;;;42.30;28.70;;;12.60;89.10;;;;;;5040367;28;20024;-79
2023/06/01 02:37:39;;;;;;;42.80;28.20;;;12.60;89.00;;;;;;5046158;28;20028;-79
2023/06/01 02:40:10;;;;;;;42.33;28.55;;;12.50;89.00;;;;;;5041420;28;20056;-79
2023/06/01 02:42:37;;;;;;;45.45;29.92;;;12.50;89.10;;;;;;5033159;28;20397;-79
2023/06/01 02:45:04;;;;;;;42.85;28.42;;;12.50;89.00;;;;;;5028030;28;20069;-79
2023/06/01 02:47:29;;;;;;;45.30;30.33;;;12.50;89.10;;;;;;5032093;28;20136;-78
2023/06/01 02:49:55;;;;;;;44.25;31.50;;;12.40;89.10;;;;;;5051328;28;20107;-79
2023/06/01 02:52:21;;;;;;;43.47;29.98;;;12.40;89.10;;;;;;5063929;28;20090;-78
2023/06/01 02:54:46;;;;;;;48.45;31.75;;;12.40;89.10;;;;;;5047263;28;20465;-81
2023/06/01 02:57:12;;;;;;;48.08;32.05;;;12.40;89.20;;;;;;5056278;28;20048;-79
2023/06/01 02:59:37;;;;;;;47.15;32.17;;;12.40;89.10;;;;;;5041553;28;20033;-79
2023/06/01 03:02:03;;;;;;;47.92;32.35;;;12.40;89.20;;;;;;5048484;28;20044;-80
2023/06/01 03:04:32;;;;;;;44.63;32.40;;;12.30;89.50;;;;;;5041779;28;20032;-80
2023/06/01 03:06:58;;;;;;;51.53;33.63;;;12.30;89.60;;;;;;5053085;28;20036;-79
2023/06/01 03:09:25;;;;;;;48.45;33.40;;;12.30;89.50;;;;;;5046434;28;20484;-80
2023/06/01 03:11:50;;;;;;;52.67;32.58;;;12.30;89.60;;;;;;5045550;28;20118;-80
2023/06/01 03:14:16;;;;;;;52.17;32.67;;;12.30;89.50;;;;;;5041810;28;20064;-80
2023/06/01 03:16:42;;;;;;;53.83;35.33;;;12.30;89.80;;;;;;5049583;28;20045;-80
2023/06/01 03:19:07;;;;;;;48.05;32.03;;;12.30;89.90;;;;;;5046339;28;20554;-79
2023/06/01 03:21:35;;;;;;;48.78;32.17;;;12.40;89.80;;;;;;5062724;28;20036;-80
2023/06/01 03:24:00;;;;;;;50.83;33.33;;;12.40;89.80;;;;;;5049501;28;20032;-79
2023/06/01 03:26:26;;;;;;;47.45;32.22;;;12.40;89.60;;;;;;5053044;28;20024;-79
2023/06/01 03:28:52;;;;;;;51.58;33.40;;;12.40;89.70;;;;;;5042948;28;20025;-81
2023/06/01 03:31:18;;;;;;;52.10;32.50;;;12.40;89.60;;;;;;5050168;28;20155;-80
2023/06/01 03:33:44;;;;;;;49.97;32.47;;;12.40;89.60;;;;;;5050372;28;20124;-79
2023/06/01 03:36:10;;;;;;;47.95;32.58;;;12.50;89.60;;;;;;5052381;28;20458;-80
2023/06/01 03:38:36;;;;;;;45.92;32.22;;;12.40;89.60;;;;;;5045142;28;20026;-79
2023/06/01 03:41:01;;;;;;;47.67;31.73;;;12.50;89.50;;;;;;5049879;28;20045;-80
2023/06/01 03:43:27;;;;;;;45.65;31.33;;;12.50;89.40;;;;;;5038792;28;20041;-80
2023/06/01 03:45:53;;;;;;;46.30;31.30;;;12.50;89.40;;;;;;5043732;28;20033;-81
2023/06/01 03:48:18;;;;;;;49.83;31.77;;;12.60;89.30;;;;;;5042518;28;20028;-80
2023/06/01 03:50:45;;;;;;;48.17;31.42;;;12.50;89.30;;;;;;5047749;28;20044;-80
2023/06/01 03:53:11;;;;;;;43.22;29.88;;;12.50;89.30;;;;;;5055167;28;20047;-80
2023/06/01 03:55:37;;;;;;;47.28;30.83;;;12.50;89.40;;;;;;5049857;28;21456;-79
2023/06/01 03:58:04;;;;;;;42.53;31.65;;;12.50;89.30;;;;;;5048940;28;20672;-82
2023/06/01 04:00:30;;;;;;;45.80;29.17;;;12.60;89.20;;;;;;5041107;28;20393;-80
2023/06/01 04:02:58;;;;;;;46.70;28.67;;;12.60;88.90;;;;;;5048480;28;20032;-79
2023/06/01 04:05:26;;;;;;;43.35;28.48;;;12.60;89.00;;;;;;5051405;28;20030;-80
2023/06/01 04:07:53;;;;;;;43.38;28.00;;;12.60;89.10;;;;;;5048108;28;20186;-80
2023/06/01 04:10:19;;;;;;;47.20;28.92;;;12.60;89.00;;;;;;5053818;28;20027;-80
2023/06/01 04:12:47;;;;;;;42.75;28.88;;;12.70;88.80;;;;;;5037895;28;20817;-80
2023/06/01 04:15:14;;;;;;;42.60;28.63;;;12.60;88.90;;;;;;5057903;28;20045;-80
2023/06/01 04:17:41;;;;;;;44.13;28.75;;;12.60;88.80;;;;;;5055251;28;20051;-79
2023/06/01 04:20:10;;;;;;;40.70;28.58;;;12.60;88.70;;;;;;5049299;28;20563;-81
2023/06/01 04:22:37;;;;;;;38.78;27.73;;;12.60;88.70;;;;;;5057373;28;20900;-80
2023/06/01 04:25:07;;;;;;;41.97;28.17;;;12.70;88.40;;;;;;5048003;28;20115;-80
2023/06/01 04:27:36;;;;;;;41.47;28.58;;;12.70;88.50;;;;;;5045049;28;20480;-80
2023/06/01 04:30:10;;;;;;;39.33;26.15;;;12.80;88.20;;;;;;5051926;28;20040;-81
2023/06/01 04:32:37;;;;;;;44.50;28.83;;;12.80;88.10;;;;;;5039277;28;20115;-83
2023/06/01 04:35:05;;;;;;;39.80;28.67;;;12.80;88.10;;;;;;5049289;28;20041;-79
2023/06/01 04:37:34;;;;;;;39.22;27.83;;;12.80;88.00;;;;;;5033788;28;20030;-79
2023/06/01 04:40:09;;;;;;;43.55;28.17;;;12.80;87.80;;;;;;5058048;28;20467;-79
2023/06/01 04:42:36;;;;;;;43.47;29.40;;;12.80;87.60;;;;;;5040077;28;20480;-79
2023/06/01 04:45:07;;;;;;;44.20;29.08;;;12.70;87.70;;;;;;5037438;28;20134;-81
2023/06/01 04:47:37;;;;;;;43.05;30.38;;;12.80;87.80;;;;;;5039127;28;20041;-81
2023/06/01 04:50:08;;;;;;;43.55;29.65;;;12.70;87.60;;;;;;5040217;28;20079;-79
2023/06/01 04:52:34;;;;;;;49.33;30.35;;;12.70;87.80;;;;;;5032803;28;20079;-80
2023/06/01 04:55:00;;;;;;;40.97;29.17;;;12.80;87.70;;;;;;5039982;28;20071;-79
2023/06/01 04:57:26;;;;;;;45.55;31.58;;;12.80;87.70;;;;;;5050444;28;20527;-79
2023/06/01 04:59:56;;;;;;;41.25;28.88;;;12.70;87.50;;;;;;5044519;28;20043;-79
2023/06/01 05:02:23;;;;;;;40.60;29.10;;;12.70;87.40;;;;;;5048345;28;20049;-79
2023/06/01 05:04:49;;;;;;;42.17;28.30;;;12.70;87.50;;;;;;5044709;28;20024;-81
2023/06/01 05:07:15;;;;;;;39.38;26.42;;;12.70;87.50;;;;;;5035838;28;20489;-81
2023/06/01 05:09:40;;;;;;;36.45;25.50;;;12.80;87.40;;;;;;5038611;28;20053;-81
2023/06/01 05:12:07;;;;;;;41.63;27.40;;;12.80;87.60;;;;;;5037224;28;20627;-80
2023/06/01 05:14:32;;;;;;;37.53;26.98;;;12.80;87.40;;;;;;5035909;28;20037;-79
2023/06/01 05:16:58;;;;;;;39.35;28.85;;;12.80;87.50;;;;;;5020727;28;20080;-79
2023/06/01 05:19:24;;;;;;;35.30;25.67;;;12.80;87.40;;;;;;5021044;28;20513;-79
2023/06/01 05:21:49;;;;;;;35.30;25.13;;;12.90;87.00;;;;;;5018473;28;20052;-79
2023/06/01 05:24:15;;;;;;;38.85;25.98;;;12.90;86.90;;;;;;5019898;28;20032;-79
2023/06/01 05:26:41;;;;;;;38.58;26.08;;;12.80;86.90;;;;;;5012695;28;20034;-79
2023/06/01 05:29:06;;;;;;;37.55;24.58;;;12.80;86.80;;;;;;5018386;28;20053;-79
2023/06/01 05:31:32;;;;;;;36.70;24.58;;;12.80;86.60;;;;;;5018980;28;20390;-79
2023/06/01 05:33:58;;;;;;;38.17;25.70;;;12.70;86.80;;;;;;5017250;28;20021;-77
2023/06/01 05:36:23;;;;;;;36.28;24.52;;;12.90;86.80;;;;;;5018084;28;20034;-77
2023/06/01 05:38:49;;;;;;;36.40;23.52;;;12.90;86.60;;;;;;5015680;28;20028;-77
2023/06/01 05:41:15;;;;;;;32.25;24.08;;;12.90;86.50;;;;;;5021581;28;20057;-79
2023/06/01 05:43:40;;;;;;;32.78;23.92;;;13.00;86.20;;;;;;5020906;28;20030;-79
2023/06/01 05:46:06;;;;;;;33.65;22.65;;;12.90;86.40;;;;;;5017538;28;20044;-78
2023/06/01 05:48:32;;;;;;;33.55;22.90;;;12.90;86.40;;;;;;5024782;28;20091;-78
2023/06/01 05:50:57;;;;;;;34.20;21.10;;;13.10;86.30;;;;;;5017004;28;20076;-78
2023/06/01 05:53:24;;;;;;;31.83;21.55;;;13.10;85.70;;;;;;5022246;28;20573;-78
2023/06/01 05:55:51;;;;;;;28.85;20.75;;;13.00;85.60;;;;;;5023441;28;20022;-78
2023/06/01 05:58:17;;;;;;;30.98;19.77;;;13.00;85.90;;;;;;5034557;28;20400;-78
2023/06/01 06:00:43;;;;;;;31.30;21.35;;;13.10;85.70;;;;;;5034148;28;20063;-78
2023/06/01 06:03:08;;;;;;;31.10;20.95;;;13.10;85.60;;;;;;5029082;28;20374;-79
2023/06/01 06:05:34;;;;;;;31.20;20.40;;;13.20;85.60;;;;;;5039674;28;20507;-78
2023/06/01 06:08:00;;;;;;;29.65;19.85;;;13.20;85.30;;;;;;5041500;28;20048;-78
2023/06/01 06:10:26;;;;;;;28.55;19.08;;;13.40;85.10;;;;;;5038843;28;20025;-78
2023/06/01 06:12:52;;;;;;;30.15;19.70;;;13.50;84.80;;;;;;5030063;28;20056;-78
2023/06/01 06:15:18;;;;;;;27.38;18.88;;;13.40;84.50;;;;;;5030909;28;20385;-77
2023/06/01 06:17:43;;;;;;;28.23;19.70;;;13.40;84.60;;;;;;5044720;28;20045;-74
2023/06/01 06:20:10;;;;;;;33.58;21.85;;;13.60;84.40;;;;;;5041439;28;20043;-73
2023/06/01 06:22:36;;;;;;;31.65;22.80;;;13.40;84.50;;;;;;5034749;28;20037;-74
2023/06/01 06:25:02;;;;;;;32.55;23.25;;;13.40;84.50;;;;;;5033471;28;20494;-75
2023/06/01 06:27:28;;;;;;;33.05;23.38;;;13.60;83.90;;;;;;5036143;28;20083;-74
2023/06/01 06:29:54;;;;;;;33.55;22.55;;;13.70;83.30;;;;;;5038402;28;20454;-75
2023/06/01 06:32:20;;;;;;;33.67;22.42;;;13.60;83.30;;;;;;5041790;28;20075;-75
2023/06/01 06:34:46;;;;;;;28.35;20.50;;;13.70;83.20;;;;;;5038305;28;20032;-77
2023/06/01 06:37:11;;;;;;;31.38;21.83;;;13.80;83.00;;;;;;5041918;28;20025;-74
2023/06/01 06:39:37;;;;;;;31.00;20.35;;;13.70;82.50;;;;;;5034232;28;20043;-74
2023/06/01 06:42:05;;;;;;;27.60;20.20;;;13.70;83.00;;;;;;5039420;28;20049;-76
2023/06/01 06:44:31;;;;;;;27.55;19.98;;;13.80;83.00;;;;;;5038525;28;20042;-79
2023/06/01 06:47:02;;;;;;;25.73;18.90;;;13.80;82.80;;;;;;5039642;28;20037;-80
2023/06/01 06:49:28;;;;;;;28.58;19.77;;;13.90;82.50;;;;;;5043082;28;20059;-78
2023/06/01 06:51:54;;;;;;;26.52;19.58;;;13.80;82.60;;;;;;5041224;28;20762;-77
2023/06/01 06:54:20;;;;;;;27.17;20.23;;;13.80;82.20;;;;;;5034733;28;20021;-81
2023/06/01 06:56:45;;;;;;;25.40;19.45;;;13.80;83.00;;;;;;5038802;28;20528;-78
2023/06/01 06:59:11;;;;;;;28.52;20.52;;;14.00;83.00;;;;;;5040495;28;20040;-78
2023/06/01 07:01:39;;;;;;;26.65;19.67;;;14.10;82.30;;;;;;5039681;28;20046;-76
2023/06/01 07:04:05;;;;;;;31.23;20.17;;;14.20;81.90;;;;;;5037068;28;20033;-76
2023/06/01 07:06:32;;;;;;;24.70;18.65;;;14.40;81.60;;;;;;5035369;28;20135;-80
2023/06/01 07:08:58;;;;;;;24.90;19.23;;;14.30;81.40;;;;;;5023583;28;20363;-78
2023/06/01 07:11:26;;;;;;;25.50;19.08;;;14.20;81.10;;;;;;5032564;28;20033;-77
2023/06/01 07:13:52;;;;;;;28.63;18.92;;;14.30;80.90;;;;;;5035530;28;20601;-78
2023/06/01 07:16:18;;;;;;;27.83;18.67;;;14.30;81.10;;;;;;5031690;28;20419;-77
2023/06/01 07:18:44;;;;;;;26.25;18.80;;;14.40;81.10;;;;;;5031335;28;20029;-76
2023/06/01 07:21:09;;;;;;;26.63;19.58;;;14.60;80.50;;;;;;5030004;28;20044;-77
2023/06/01 07:23:35;;;;;;;27.02;21.13;;;14.80;79.80;;;;;;5033778;28;20057;-76
2023/06/01 07:26:01;;;;;;;26.58;20.90;;;14.90;79.50;;;;;;5028342;28;20132;-79
2023/06/01 07:28:27;;;;;;;25.58;18.60;;;14.80;78.90;;;;;;5033946;28;20422;-76
2023/06/01 07:30:55;;;;;;;29.65;19.80;;;14.80;79.20;;;;;;5043032;28;20033;-76
2023/06/01 07:33:22;;;;;;;28.85;21.35;;;14.70;79.10;;;;;;5037136;28;20063;-75
2023/06/01 07:35:52;;;;;;;30.85;21.73;;;14.70;79.50;;;;;;5041092;28;20025;-78
2023/06/01 07:38:19;;;;;;;28.50;20.13;;;14.90;79.30;;;;;;5041321;28;20032;-78
2023/06/01 07:40:44;;;;;;;26.73;19.17;;;15.10;78.20;;;;;;5030899;28;20051;-78
2023/06/01 07:43:10;;;;;;;22.65;17.92;;;15.30;77.60;;;;;;5022276;28;20037;-79
2023/06/01 07:45:36;;;;;;;24.45;18.75;;;15.70;76.60;;;;;;5023816;28;20029;-78
2023/06/01 07:48:01;;;;;;;26.63;17.27;;;15.80;75.30;;;;;;5031658;28;20982;-77
2023/06/01 07:50:30;;;;;;;25.00;18.65;;;15.90;75.60;;;;;;5031940;28;20705;-76
2023/06/01 07:52:57;;;;;;;22.10;17.25;;;16.10;75.20;;;;;;5032778;28;20430;-76
2023/06/01 07:55:23;;;;;;;22.00;16.35;;;16.00;74.30;;;;;;5021105;28;20033;-78
2023/06/01 07:57:49;;;;;;;24.27;15.90;;;15.90;74.40;;;;;;5036206;28;20021;-77
2023/06/01 08:00:17;;;;;;;23.80;16.15;;;16.10;74.70;;;;;;5030924;28;20034;-78
2023/06/01 08:02:43;;;;;;;22.75;15.68;;;16.40;74.20;;;;;;5025300;28;20068;-78
2023/06/01 08:05:10;;;;;;;20.75;14.73;;;16.40;73.80;;;;;;5038513;28;20039;-76
2023/06/01 08:07:37;;;;;;;21.73;15.25;;;16.60;73.00;;;;;;5022397;28;20060;-76
2023/06/01 08:10:05;;;;;;;21.65;16.52;;;16.50;72.60;;;;;;5029225;28;20076;-76
2023/06/01 08:12:31;;;;;;;20.25;14.93;;;16.60;73.10;;;;;;5031155;28;20601;-77
2023/06/01 08:14:58;;;;;;;19.17;14.95;;;16.90;73.20;;;;;;5033768;28;20072;-77
2023/06/01 08:17:24;;;;;;;19.48;14.15;;;17.10;72.30;;;;;;5041947;28;20041;-77
2023/06/01 08:19:50;;;;;;;22.40;14.88;;;17.40;70.80;;;;;;5048251;28;20033;-76
2023/06/01 08:22:16;;;;;;;21.80;15.10;;;17.50;69.70;;;;;;5057824;28;20588;-78
2023/06/01 08:24:43;;;;;;;18.95;14.73;;;17.40;71.00;;;;;;5044167;28;20025;-79
2023/06/01 08:27:23;;;;;;;20.58;15.18;;;17.50;70.10;;;;;;5044948;28;20033;-79
2023/06/01 08:29:49;;;;;;;23.15;16.33;;;17.50;69.20;;;;;;5045648;28;20032;-77
2023/06/01 08:32:16;;;;;;;20.40;14.60;;;17.40;70.00;;;;;;5036658;28;20033;-76
2023/06/01 08:34:43;;;;;;;22.52;14.63;;;17.60;69.80;;;;;;5046433;28;20470;-78
2023/06/01 08:37:09;;;;;;;21.73;15.95;;;17.70;69.40;;;;;;5041214;28;20029;-76
2023/06/01 08:39:35;;;;;;;23.40;15.10;;;17.90;68.20;;;;;;5055102;28;20437;-76
2023/06/01 08:42:08;;;;;;;22.98;16.23;;;17.60;68.80;;;;;;5024790;28;20382;-76
2023/06/01 08:44:40;;;;;;;18.88;14.55;;;17.60;67.90;;;;;;5014970;28;20115;-77
2023/06/01 08:47:06;;;;;;;20.23;15.07;;;17.70;68.00;;;;;;5016094;28;20041;-78
2023/06/01 08:49:33;;;;;;;22.42;15.88;;;17.90;67.70;;;;;;5009766;28;20210;-76
2023/06/01 08:52:07;;;;;;;20.13;15.98;;;18.10;67.10;;;;;;5019515;28;20043;-76
2023/06/01 08:54:33;;;;;;;20.83;14.77;;;18.30;66.90;;;;;;5015102;28;20041;-76
2023/06/01 08:57:06;;;;;;;22.05;15.05;;;18.10;65.90;;;;;;5017067;28;20045;-77
2023/06/01 08:59:33;;;;;;;18.05;14.10;;;17.90;65.00;;;;;;5016672;28;20591;-76
2023/06/01 09:01:59;;;;;;;22.00;15.52;;;18.00;64.30;;;;;;5015400;28;20046;-78
2023/06/01 09:04:26;;;;;;;20.05;14.50;;;17.90;65.10;;;;;;5019890;28;20017;-78
2023/06/01 09:06:52;;;;;;;19.33;14.30;;;18.10;65.80;;;;;;5020077;28;20037;-78
2023/06/01 09:09:18;;;;;;;19.92;14.50;;;18.10;64.30;;;;;;5021397;28;20136;-79
2023/06/01 09:11:44;;;;;;;20.27;15.38;;;18.30;64.00;;;;;;5019681;28;20065;-78
2023/06/01 09:14:21;;;;;;;21.95;15.30;;;18.30;64.00;;;;;;5011117;28;20141;-78
2023/06/01 09:16:47;;;;;;;21.98;15.40;;;18.60;64.40;;;;;;5015407;28;20326;-79
2023/06/01 09:19:13;;;;;;;23.65;15.98;;;18.90;62.80;;;;;;5020725;28;20121;-81
2023/06/01 09:21:39;;;;;;;20.08;14.85;;;18.80;62.00;;;;;;5020775;28;20046;-79
2023/06/01 09:24:22;;;;;;;19.73;14.25;;;18.90;61.60;;;;;;5013048;28;20056;-79
2023/06/01 09:26:48;;;;;;;21.45;14.75;;;18.60;62.20;;;;;;5016641;28;20090;-79
2023/06/01 09:29:14;;;;;;;22.50;15.35;;;18.50;61.80;;;;;;5024451;28;20048;-78
2023/06/01 09:31:47;;;;;;;20.42;13.98;;;18.60;62.20;;;;;;5027290;28;20489;-78
2023/06/01 09:34:19;;;;;;;20.13;15.30;;;18.90;61.20;;;;;;5038983;28;20025;-78
2023/06/01 09:36:55;;;;;;;19.55;14.88;;;19.10;60.90;;;;;;5042875;28;20029;-78
2023/06/01 09:39:23;;;;;;;19.50;13.88;;;19.20;59.70;;;;;;5040103;28;20021;-78
2023/06/01 09:41:48;;;;;;;20.38;14.73;;;19.20;60.20;;;;;;5043010;28;20037;-77
2023/06/01 09:44:32;;;;;;;18.95;13.90;;;19.30;59.60;;;;;;5032085;28;20051;-76
2023/06/01 09:47:03;;;;;;;21.02;14.48;;;19.00;60.00;;;;;;5041759;28;20436;-77
2023/06/01 09:49:38;;;;;;;21.92;14.85;;;19.10;59.00;;;;;;5042139;28;20033;-76
2023/06/01 09:52:04;;;;;;;19.20;14.93;;;18.90;59.80;;;;;;5035939;28;20106;-76
2023/06/01 09:54:34;;;;;;;20.77;14.38;;;18.70;60.70;;;;;;5044397;28;20408;-76
2023/06/01 09:57:02;;;;;;;23.45;14.75;;;19.10;60.00;;;;;;5038274;28;20127;-76
2023/06/01 09:59:28;;;;;;;20.45;15.32;;;19.40;58.70;;;;;;5034724;28;20029;-75
2023/06/01 10:01:57;;;;;;;22.08;15.50;;;19.70;57.80;;;;;;5040564;28;20205;-75
2023/06/01 10:04:25;;;;;;;22.02;16.10;;;19.60;60.40;;;;;;5036078;28;20026;-75
2023/06/01 10:06:52;;;;;;;26.45;17.17;;;19.60;60.10;;;;;;5031486;28;20050;-74
2023/06/01 10:09:19;;;;;;;23.38;16.65;;;19.70;60.80;;;;;;5044152;28;20017;-74
2023/06/01 10:11:49;;;;;;;22.58;16.58;;;19.80;60.40;;;;;;5039411;28;20044;-74
2023/06/01 10:14:16;;;;;;;24.40;15.70;;;20.10;59.30;;;;;;5044545;28;20388;-75
2023/06/01 10:16:43;;;;;;;24.08;16.05;;;20.10;59.60;;;;;;5029222;28;20192;-75
2023/06/01 10:19:10;;;;;;;21.17;15.35;;;20.20;57.60;;;;;;5026201;28;20079;-74
2023/06/01 10:21:39;;;;;;;22.33;15.85;;;20.30;58.30;;;;;;5033639;28;20051;-74
2023/06/01 10:24:07;;;;;;;23.45;15.27;;;20.40;59.00;;;;;;5034589;28;20056;-75
2023/06/01 10:27:05;;;;;;;20.58;15.88;;;20.60;56.40;;;;;;5027094;28;20033;-75
2023/06/01 10:29:32;;;;;;;23.63;15.88;;;20.10;56.10;;;;;;5030399;28;20445;-75
2023/06/01 10:31:57;;;;;;;24.60;17.33;;;20.00;58.40;;;;;;5029510;28;20060;-75
2023/06/01 10:34:46;;;;;;;24.95;18.08;;;20.30;58.40;;;;;;5032352;28;20408;-75
2023/06/01 10:37:13;;;;;;;24.30;17.83;;;20.30;57.00;;;;;;5029184;28;20033;-76
2023/06/01 10:39:39;;;;;;;23.95;17.80;;;20.30;57.60;;;;;;5028203;28;20029;-75
2023/06/01 10:42:14;;;;;;;23.73;17.02;;;20.20;57.30;;;;;;5027874;28;20052;-75
2023/06/01 10:44:40;;;;;;;23.25;16.70;;;20.30;56.50;;;;;;5026892;28;20033;-75
2023/06/01 10:47:35;;;;;;;23.05;17.02;;;20.80;55.80;;;;;;5027560;28;20070;-75
2023/06/01 10:50:00;;;;;;;21.58;16.65;;;20.90;56.60;;;;;;5029756;28;20053;-75
2023/06/01 10:52:40;;;;;;;21.55;16.52;;;20.90;53.10;;;;;;5030500;28;20033;-75
2023/06/01 10:55:06;;;;;;;22.35;18.17;;;20.50;55.00;;;;;;5028910;28;20029;-75
2023/06/01 10:57:35;;;;;;;23.90;18.15;;;20.30;56.00;;;;;;5027441;28;20045;-75
2023/06/01 11:00:10;;;;;;;22.23;18.25;;;20.60;55.60;;;;;;5025602;28;20038;-75
2023/06/01 11:03:05;;;;;;;25.92;18.33;;;20.50;56.00;;;;;;5025403;28;20032;-74
2023/06/01 11:05:46;;;;;;;19.13;15.95;;;20.80;54.80;;;;;;5021347;28;20469;-75
2023/06/01 11:08:20;;;;;;;23.13;17.20;;;20.60;55.50;;;;;;5027867;28;20074;-76
2023/06/01 11:10:59;;;;;;;;;;;20.70;55.00;;;;;;5026683;28;20045;-76
2023/06/01 11:13:32;;;;;;;22.33;16.98;;;20.60;53.60;;;;;;5026700;28;19925;-76
2023/06/01 11:16:04;;;;;;;26.95;17.60;;;20.60;54.50;;;;;;5024767;28;20561;-76
2023/06/01 11:18:49;;;;;;;21.55;16.73;;;20.70;55.20;;;;;;5028956;28;20029;-76
2023/06/01 11:21:21;;;;;;;24.52;17.83;;;20.70;55.50;;;;;;5038762;28;20044;-75
2023/06/01 11:23:47;;;;;;;21.70;16.55;;;20.80;53.40;;;;;;5038989;28;20025;-76
2023/06/01 11:26:17;;;;;;;21.30;14.82;;;20.70;52.80;;;;;;5035875;28;20033;-76
2023/06/01 11:28:45;;;;;;;24.92;17.08;;;21.00;53.00;;;;;;5030871;28;20033;-76
2023/06/01 11:31:13;;;;;;;21.23;15.02;;;21.10;52.10;;;;;;5032079;28;20106;-75
2023/06/01 11:33:42;;;;;;;26.38;19.35;;;21.30;52.70;;;;;;5037909;28;20040;-76
2023/06/01 11:36:10;;;;;;;22.70;18.02;;;21.30;53.50;;;;;;5031949;28;20029;-76
2023/06/01 11:38:41;;;;;;;25.85;20.10;;;21.50;53.80;;;;;;5026384;28;20120;-75
2023/06/01 11:41:08;;;;;;;24.15;19.25;;;21.50;54.10;;;;;;5032334;28;20384;-74
2023/06/01 11:43:34;;;;;;;27.52;21.15;;;21.20;54.90;;;;;;5030294;28;20087;-77
2023/06/01 11:46:09;;;;;;;23.98;18.63;;;21.40;54.20;;;;;;5026254;28;20022;-76
2023/06/01 11:48:35;;;;;;;21.50;18.98;;;21.40;52.50;;;;;;5030997;28;20021;-76
2023/06/01 11:51:05;;;;;;;28.98;20.40;;;21.10;54.60;;;;;;5029733;28;20041;-76
2023/06/01 11:53:34;;;;;;;24.77;20.08;;;21.30;54.80;;;;;;5030806;28;20022;-76
2023/06/01 11:56:01;;;;;;;25.40;19.35;;;21.70;53.50;;;;;;5026568;28;20051;-75
2023/06/01 11:58:29;;;;;;;23.13;19.25;;;21.80;50.40;;;;;;5029176;28;20014;-75
2023/06/01 12:00:55;;;;;;;26.25;20.88;;;21.60;52.80;;;;;;5031164;28;20029;-75
2023/06/01 12:03:23;;;;;;;28.15;22.25;;;21.90;52.90;;;;;;5033773;28;20188;-75
2023/06/01 12:05:49;;;;;;;27.85;21.33;;;21.70;52.30;;;;;;5041268;28;20016;-77
2023/06/01 12:08:17;;;;;;;27.10;20.02;;;21.60;53.00;;;;;;5039968;28;20014;-75
2023/06/01 12:10:45;;;;;;;29.02;21.80;;;21.70;52.40;;;;;;5034951;28;20062;-76
2023/06/01 12:13:11;;;;;;;28.08;21.67;;;21.50;52.40;;;;;;5031999;28;20053;-75
2023/06/01 12:15:37;;;;;;;29.85;21.75;;;21.70;52.40;;;;;;5038081;28;20025;-76
2023/06/01 12:18:03;;;;;;;28.70;23.45;;;21.60;52.50;;;;;;5041885;28;20041;-75
2023/06/01 12:20:33;;;;;;;30.67;22.75;;;21.40;51.60;;;;;;5040035;28;20025;-76
2023/06/01 12:23:03;;;;;;;27.35;21.30;;;21.50;52.00;;;;;;5036653;28;20041;-75
2023/06/01 12:25:30;;;;;;;28.50;22.27;;;21.80;52.00;;;;;;5039715;28;20005;-75
2023/06/01 12:28:07;;;;;;;31.55;22.55;;;22.10;50.50;;;;;;5030021;28;20032;-75
2023/06/01 12:30:33;;;;;;;27.70;22.23;;;22.10;51.40;;;;;;5039278;28;20219;-76
2023/06/01 12:33:00;;;;;;;25.42;21.25;;;22.10;50.20;;;;;;5030302;28;20033;-75